Time;durP1;ratioP1;P1;durP2;ratioP2;P2;SDS_P1;SDS_P2;PMS_P1;PMS_P2;Temp;Humidity;BMP_temperature;BMP_pressure;BME280_temperature;BME280_humidity;BME280_pressure;Samples;Min_cycle;Max_cycle;Signal;HPM_P1;HPM_P2
2022/01/11 00:01:42;;;;;;;;;;;;;;;22.80;25.31;97492.47;5080536;28;819;-75
2022/01/11 00:04:12;;;;;;;;;;;;;;;22.65;25.42;97487.81;5079148;28;758;-75
2022/01/11 00:06:45;;;;;;;;;;;;;;;22.03;25.82;97494.16;5080630;28;771;-75
2022/01/11 00:11:54;;;;;;;;;;;;;;;22.21;26.05;97499.97;5081055;28;790;-75
2022/01/11 00:14:20;;;;;;;;;;;;;;;22.48;25.61;97509.91;5117609;28;971;-75
2022/01/11 00:16:45;;;;;;;;;;;;;;;22.50;25.75;97490.41;5119368;28;1914;-75
2022/01/11 00:19:13;;;;;;;;;;;;;;;22.17;26.12;97507.00;5117033;28;837;-75
2022/01/11 00:21:45;;;;;;;;;;;;;;;22.32;25.68;97511.69;5118882;28;797;-75
2022/01/11 00:27:04;;;;;;;;;;;;;;;22.76;26.18;97502.34;5118293;28;1005;-75
2022/01/11 00:29:30;;;;;;;;;;;;;;;22.70;26.68;97502.19;5114527;28;977;-75
2022/01/11 00:32:03;;;;;;;;;;;;;;;21.38;29.02;97508.94;5101100;28;1230;-75
2022/01/11 00:34:36;;;;;;;;;;;;;;;21.68;28.77;97491.31;5117605;28;793;-75
2022/01/11 00:37:02;;;;;;;;;;;;;;;22.35;28.66;97496.59;5078569;28;1902;-75
2022/01/11 00:39:27;;;;;;;;;;;;;;;23.34;26.84;97499.59;5076655;28;883;-75
2022/01/11 00:41:53;;;;;;;;;;;;;;;22.44;27.47;97493.06;5018672;28;1311;-75
2022/01/11 00:44:18;;;;;;;;;;;;;;;22.12;27.47;97511.22;5014237;28;1014;-75
2022/01/11 00:46:45;;;;;;;;;;;;;;;22.18;27.84;97509.41;4979197;28;824;-75
2022/01/11 00:49:11;;;;;;;;;;;;;;;22.45;27.48;97516.50;4977622;28;854;-75
2022/01/11 00:51:36;;;;;;;;;;;;;;;22.32;27.65;97510.91;4979030;28;855;-75
2022/01/11 00:54:02;;;;;;;;;;;;;;;22.53;26.86;97512.94;5012371;28;1120;-75
2022/01/11 00:56:28;;;;;;;;;;;;;;;22.53;26.90;97529.94;4998106;28;1899;-75
2022/01/11 00:58:54;;;;;;;;;;;;;;;22.60;26.76;97523.22;5035207;28;1533;-75
2022/01/11 01:01:19;;;;;;;;;;;;;;;22.52;26.47;97530.41;5037872;28;1004;-75
2022/01/11 01:03:45;;;;;;;;;;;;;;;22.58;26.55;97537.06;5035153;28;984;-75
2022/01/11 01:06:10;;;;;;;;;;;;;;;22.59;26.35;97545.13;4999508;28;1527;-75
2022/01/11 01:08:35;;;;;;;;;;;;;;;22.48;26.23;97532.59;5010528;28;883;-75
2022/01/11 01:11:02;;;;;;;;;;;;;;;22.53;26.31;97534.81;5018734;28;963;-75
2022/01/11 01:13:32;;;;;;;;;;;;;;;22.15;26.65;97538.66;5019757;28;1108;-75
2022/01/11 01:16:02;;;;;;;;;;;;;;;21.93;26.92;97543.47;5055141;28;1906;-75
2022/01/11 01:18:53;;;;;;;;;;;;;;;21.84;26.98;97547.78;4957057;29;1077;-75
2022/01/11 01:21:19;;;;;;;;;;;;;;;22.05;26.48;97534.91;4959563;29;1020;-75
2022/01/11 01:23:44;;;;;;;;;;;;;;;22.16;26.17;97551.56;4956525;29;838;-75
2022/01/11 01:26:11;;;;;;;;;;;;;;;22.34;25.87;97543.22;4924504;29;1173;-75
2022/01/11 01:28:36;;;;;;;;;;;;;;;22.48;25.92;97546.75;4921196;29;1480;-75
2022/01/11 01:31:02;;;;;;;;;;;;;;;22.43;25.83;97562.31;4921715;29;1189;-75
2022/01/11 01:33:31;;;;;;;;;;;;;;;22.01;26.52;97561.78;4918614;29;1458;-75
2022/01/11 01:36:01;;;;;;;;;;;;;;;22.47;25.68;97565.03;4905041;29;1887;-75
2022/01/11 01:38:27;;;;;;;;;;;;;;;22.80;25.04;97560.53;4936922;29;978;-75
2022/01/11 01:40:55;;;;;;;;;;;;;;;21.92;26.39;97576.69;4886036;29;1271;-75
2022/01/11 01:43:20;;;;;;;;;;;;;;;22.07;25.85;97571.28;4864768;29;1082;-75
2022/01/11 01:45:49;;;;;;;;;;;;;;;22.09;25.91;97585.78;4791299;30;1412;-75
2022/01/11 01:48:15;;;;;;;;;;;;;;;22.37;25.65;97584.00;4807425;29;1153;-75
2022/01/11 01:50:42;;;;;;;;;;;;;;;22.66;25.03;97589.44;4772856;30;973;-75
2022/01/11 01:53:10;;;;;;;;;;;;;;;22.56;25.34;97607.63;4772092;30;1013;-74
2022/01/11 01:55:36;;;;;;;;;;;;;;;22.52;25.51;97590.75;4762634;30;1916;-75
2022/01/11 01:58:01;;;;;;;;;;;;;;;22.36;25.59;97593.78;4817268;29;1296;-75
2022/01/11 02:00:29;;;;;;;;;;;;;;;21.81;26.04;97588.38;4826929;29;1061;-75
2022/01/11 02:03:04;;;;;;;;;;;;;;;21.74;25.99;97588.59;4811476;29;1040;-75
2022/01/11 02:05:30;;;;;;;;;;;;;;;22.27;25.81;97591.63;4825513;29;1280;-75
2022/01/11 02:07:55;;;;;;;;;;;;;;;21.88;26.28;97598.66;4808459;29;1229;-75
2022/01/11 02:10:21;;;;;;;;;;;;;;;21.91;26.08;97579.94;4808092;29;1285;-75
2022/01/11 02:12:46;;;;;;;;;;;;;;;22.10;25.84;97599.53;4790286;29;1063;-75
2022/01/11 02:15:12;;;;;;;;;;;;;;;22.27;25.72;97591.63;4777879;30;1093;-75
2022/01/11 02:17:38;;;;;;;;;;;;;;;21.83;26.19;97591.53;4821099;29;1919;-75
2022/01/11 02:20:05;;;;;;;;;;;;;;;22.29;25.31;97611.03;4810314;29;1162;-75
2022/01/11 02:22:30;;;;;;;;;;;;;;;22.68;24.65;97606.75;4813451;29;869;-75
2022/01/11 02:24:56;;;;;;;;;;;;;;;22.66;24.97;97617.00;4844018;29;1126;-75
2022/01/11 02:27:22;;;;;;;;;;;;;;;22.79;24.93;97607.16;4822268;29;1270;-75
2022/01/11 02:29:48;;;;;;;;;;;;;;;22.69;25.02;97618.91;4865216;29;1239;-75
2022/01/11 02:32:13;;;;;;;;;;;;;;;22.59;24.83;97606.72;4882521;29;1353;-75
2022/01/11 02:34:39;;;;;;;;;;;;;;;22.11;25.78;97605.97;4881027;29;1257;-75
2022/01/11 02:37:13;;;;;;;;;;;;;;;22.75;24.67;97619.91;4897589;29;1903;-75
2022/01/11 02:39:59;;;;;;;;;;;;;;;22.62;25.02;97602.94;4915863;29;1713;-75
2022/01/11 02:42:29;;;;;;;;;;;;;;;22.55;24.86;97611.72;4991314;28;1137;-75
2022/01/11 02:44:54;;;;;;;;;;;;;;;22.62;24.74;97606.56;4937539;29;1101;-74
2022/01/11 02:47:21;;;;;;;;;;;;;;;22.72;24.55;97609.47;4942105;29;1768;-75
2022/01/11 02:49:50;;;;;;;;;;;;;;;22.30;25.00;97607.75;4962418;28;1092;-75
2022/01/11 02:52:22;;;;;;;;;;;;;;;22.08;25.32;97604.06;4961406;28;1381;-75
2022/01/11 02:54:53;;;;;;;;;;;;;;;21.80;25.54;97595.25;4956845;28;1424;-75
2022/01/11 02:57:20;;;;;;;;;;;;;;;22.17;25.09;97598.47;4961783;29;1891;-75
2022/01/11 02:59:47;;;;;;;;;;;;;;;22.18;25.49;97611.41;4980969;28;1065;-75
2022/01/11 03:02:14;;;;;;;;;;;;;;;22.44;24.70;97605.66;5000386;28;1398;-75
2022/01/11 03:04:41;;;;;;;;;;;;;;;22.55;24.36;97600.38;4998961;28;1301;-75
2022/01/11 03:07:07;;;;;;;;;;;;;;;22.39;24.86;97600.56;5001262;28;1314;-75
2022/01/11 03:12:46;;;;;;;;;;;;;;;22.23;24.90;97596.66;4999848;28;1252;-75
2022/01/11 03:15:12;;;;;;;;;;;;;;;22.56;24.45;97597.06;4967506;28;1104;-75
2022/01/11 03:17:38;;;;;;;;;;;;;;;22.39;24.54;97603.41;5038835;28;1891;-75
2022/01/11 03:20:05;;;;;;;;;;;;;;;22.78;24.26;97616.13;5020860;28;1246;-75
2022/01/11 03:22:30;;;;;;;;;;;;;;;22.59;24.51;97616.00;5019271;28;879;-75
2022/01/11 03:24:56;;;;;;;;;;;;;;;22.33;24.72;97632.34;5001340;28;1103;-75
2022/01/11 03:27:23;;;;;;;;;;;;;;;22.21;24.74;97633.16;5002822;28;1004;-75
2022/01/11 03:29:48;;;;;;;;;;;;;;;22.49;24.75;97659.72;4998388;28;1060;-75
2022/01/11 03:32:18;;;;;;;;;;;;;;;22.44;24.97;97668.03;4964042;28;1627;-75
2022/01/11 03:34:45;;;;;;;;;;;;;;;22.53;24.32;97670.91;4978254;28;1474;-75
2022/01/11 03:37:16;;;;;;;;;;;;;;;22.71;24.67;97693.78;4979957;28;1960;-75
2022/01/11 03:39:43;;;;;;;;;;;;;;;22.60;25.31;97693.38;4962155;28;1217;-75
2022/01/11 03:42:08;;;;;;;;;;;;;;;21.65;26.95;97693.25;4999936;28;1147;-75
2022/01/11 03:44:34;;;;;;;;;;;;;;;21.58;27.32;97693.50;4959408;29;1203;-75
2022/01/11 03:47:01;;;;;;;;;;;;;;;22.00;27.30;97699.03;4932107;29;1255;-75
2022/01/11 03:49:26;;;;;;;;;;;;;;;22.15;26.95;97697.34;4936877;29;1131;-75
2022/01/11 03:51:52;;;;;;;;;;;;;;;22.31;26.70;97693.56;4941779;29;926;-75
2022/01/11 03:54:24;;;;;;;;;;;;;;;21.73;27.60;97697.47;4940077;29;904;-75
2022/01/11 03:57:07;;;;;;;;;;;;;;;22.03;27.16;97698.13;4941833;29;1891;-75
2022/01/11 03:59:40;;;;;;;;;;;;;;;21.43;27.68;97698.00;4970392;28;1174;-75
2022/01/11 04:02:06;;;;;;;;;;;;;;;22.17;26.79;97696.88;4979664;28;946;-75
2022/01/11 04:04:32;;;;;;;;;;;;;;;22.44;25.96;97682.19;4977838;28;1079;-75
2022/01/11 04:06:59;;;;;;;;;;;;;;;21.20;27.91;97697.06;4979927;28;1253;-75
2022/01/11 04:09:25;;;;;;;;;;;;;;;21.28;27.81;97701.22;4978643;28;1120;-75
2022/01/11 04:11:51;;;;;;;;;;;;;;;21.08;27.89;97694.97;4999875;28;1233;-75
2022/01/11 04:14:17;;;;;;;;;;;;;;;21.49;27.52;97680.00;4981572;28;1266;-75
2022/01/11 04:16:43;;;;;;;;;;;;;;;21.97;26.44;97685.78;5002376;28;1969;-75
2022/01/11 04:19:11;;;;;;;;;;;;;;;21.65;26.64;97693.25;5017120;28;1191;-75
2022/01/11 04:21:37;;;;;;;;;;;;;;;21.18;27.55;97710.84;4960637;28;1111;-75
2022/01/11 04:24:03;;;;;;;;;;;;;;;21.76;26.46;97699.41;4952404;28;1297;-75
2022/01/11 04:26:28;;;;;;;;;;;;;;;21.41;27.13;97706.97;4996507;28;1155;-75
2022/01/11 04:29:01;;;;;;;;;;;;;;;22.25;25.79;97696.19;4977916;28;1224;-75
2022/01/11 04:31:26;;;;;;;;;;;;;;;21.79;26.31;97704.13;4996116;28;1207;-75
2022/01/11 04:33:53;;;;;;;;;;;;;;;21.77;26.58;97700.97;5000224;28;1221;-75
2022/01/11 04:36:18;;;;;;;;;;;;;;;21.38;26.99;97718.38;4999211;28;1981;-75
2022/01/11 04:38:44;;;;;;;;;;;;;;;21.98;26.19;97715.69;4995994;28;1144;-75
2022/01/11 04:41:11;;;;;;;;;;;;;;;22.27;25.26;97727.69;4999621;28;1187;-75
2022/01/11 04:43:41;;;;;;;;;;;;;;;21.49;26.55;97730.16;4980074;28;1299;-75
2022/01/11 04:46:06;;;;;;;;;;;;;;;22.16;25.36;97732.13;4941164;29;1319;-75
2022/01/11 04:48:32;;;;;;;;;;;;;;;21.82;26.04;97720.25;4956857;29;1228;-75
2022/01/11 04:51:00;;;;;;;;;;;;;;;22.26;25.53;97714.75;4944709;29;1137;-76
2022/01/11 04:53:26;;;;;;;;;;;;;;;22.25;25.25;97724.53;4921670;29;1315;-75
2022/01/11 04:55:51;;;;;;;;;;;;;;;22.16;25.55;97724.41;4928006;29;1880;-75
2022/01/11 04:58:18;;;;;;;;;;;;;;;21.35;26.53;97731.41;4919177;29;960;-75
2022/01/11 05:00:43;;;;;;;;;;;;;;;22.17;25.28;97725.22;4945077;29;1262;-76
2022/01/11 05:03:09;;;;;;;;;;;;;;;21.64;25.87;97734.16;4922974;29;1716;-76
2022/01/11 05:05:37;;;;;;;;;;;;;;;21.46;26.14;97719.75;4929774;29;1283;-75
2022/01/11 05:08:05;;;;;;;;;;;;;;;21.61;26.11;97749.22;4955122;29;1121;-76
2022/01/11 05:10:31;;;;;;;;;;;;;;;22.07;25.15;97727.09;4894156;29;1228;-76
2022/01/11 05:12:57;;;;;;;;;;;;;;;21.97;25.61;97722.63;4877868;29;1426;-76
2022/01/11 05:15:25;;;;;;;;;;;;;;;21.67;25.96;97733.25;4928691;29;1429;-76
2022/01/11 05:17:53;;;;;;;;;;;;;;;21.81;25.47;97744.16;4919456;29;1973;-76
2022/01/11 05:20:19;;;;;;;;;;;;;;;22.06;25.38;97736.88;4938697;29;1144;-76
2022/01/11 05:22:47;;;;;;;;;;;;;;;21.68;25.34;97749.00;4938587;29;1330;-76
2022/01/11 05:25:15;;;;;;;;;;;;;;;22.09;25.05;97744.47;4915844;29;1161;-77
2022/01/11 05:27:41;;;;;;;;;;;;;;;21.58;25.55;97755.78;4935363;29;1268;-77
2022/01/11 05:30:07;;;;;;;;;;;;;;;22.26;24.74;97747.97;4931010;29;1404;-75
2022/01/11 05:32:35;;;;;;;;;;;;;;;21.73;25.16;97756.94;4914416;29;1370;-76
2022/01/11 05:35:04;;;;;;;;;;;;;;;22.08;24.61;97762.72;4966933;28;1264;-76
2022/01/11 05:37:30;;;;;;;;;;;;;;;22.36;24.66;97756.13;4926188;29;1977;-76
2022/01/11 05:39:59;;;;;;;;;;;;;;;21.64;25.47;97765.28;4883799;29;1155;-77
2022/01/11 05:42:27;;;;;;;;;;;;;;;21.92;25.00;97774.19;4919909;29;1270;-76
2022/01/11 05:44:53;;;;;;;;;;;;;;;21.92;25.00;97774.97;4916122;29;1180;-76
2022/01/11 05:47:19;;;;;;;;;;;;;;;21.74;25.03;97781.16;4901615;29;1198;-76
2022/01/11 05:49:45;;;;;;;;;;;;;;;22.20;24.34;97764.78;4865401;29;1063;-76
2022/01/11 05:52:11;;;;;;;;;;;;;;;21.81;24.94;97797.97;4918258;29;1117;-76
2022/01/11 05:54:36;;;;;;;;;;;;;;;21.82;25.13;97793.88;4900289;29;1245;-76
2022/01/11 05:57:02;;;;;;;;;;;;;;;21.73;25.18;97790.91;4882816;29;1953;-76
2022/01/11 05:59:28;;;;;;;;;;;;;;;22.21;24.09;97785.41;4869879;29;1621;-77
2022/01/11 06:01:53;;;;;;;;;;;;;;;22.26;23.94;97779.94;4883329;29;1530;-76
2022/01/11 06:04:19;;;;;;;;;;;;;;;21.94;24.58;97788.66;4866328;29;1134;-75
2022/01/11 06:06:44;;;;;;;;;;;;;;;22.03;24.34;97797.28;4835047;29;1467;-76
2022/01/11 06:09:10;;;;;;;;;;;;;;;21.51;25.12;97795.63;4847267;29;1309;-76
2022/01/11 06:11:36;;;;;;;;;;;;;;;21.67;24.90;97787.06;4853303;29;1253;-76
2022/01/11 06:14:01;;;;;;;;;;;;;;;22.18;24.08;97792.78;4869177;29;1248;-76
2022/01/11 06:16:27;;;;;;;;;;;;;;;22.01;24.29;97800.56;4874820;29;1887;-77
2022/01/11 06:18:53;;;;;;;;;;;;;;;21.53;25.00;97798.81;4888785;29;1131;-77
2022/01/11 06:21:26;;;;;;;;;;;;;;;21.53;25.11;97805.25;4890319;29;1274;-76
2022/01/11 06:23:51;;;;;;;;;;;;;;;21.83;24.28;97811.66;4906706;29;1264;-76
2022/01/11 06:26:18;;;;;;;;;;;;;;;22.12;23.89;97808.75;4955454;29;1169;-76
2022/01/11 06:28:44;;;;;;;;;;;;;;;21.64;24.91;97810.59;4964486;28;1236;-76
2022/01/11 06:31:10;;;;;;;;;;;;;;;21.79;24.26;97811.75;5030388;28;1349;-76
2022/01/11 06:33:36;;;;;;;;;;;;;;;22.32;23.61;97820.66;5037681;28;1222;-77
2022/01/11 06:36:02;;;;;;;;;;;;;;;21.75;24.32;97822.41;5037247;28;1910;-76
2022/01/11 06:38:27;;;;;;;;;;;;;;;22.10;23.81;97836.72;5002825;28;1282;-76
2022/01/11 06:40:53;;;;;;;;;;;;;;;21.95;24.21;97835.56;5004572;28;1293;-75
2022/01/11 06:43:20;;;;;;;;;;;;;;;21.88;24.23;97847.91;5018132;28;1267;-76
2022/01/11 06:45:46;;;;;;;;;;;;;;;22.04;23.83;97844.19;5021056;28;1373;-76
2022/01/11 06:48:15;;;;;;;;;;;;;;;21.78;24.30;97846.19;4999374;28;1254;-77
2022/01/11 06:50:41;;;;;;;;;;;;;;;21.70;24.40;97830.66;4974778;28;1780;-76
2022/01/11 06:53:07;;;;;;;;;;;;;;;21.62;24.39;97835.75;4954802;28;1386;-76
2022/01/11 06:55:40;;;;;;;;;;;;;;;21.84;24.20;97831.03;4956064;28;1887;-77
2022/01/11 06:58:07;;;;;;;;;;;;;;;21.35;24.75;97846.63;4988111;28;1345;-76
2022/01/11 07:00:33;;;;;;;;;;;;;;;22.01;23.67;97830.94;4992581;28;1313;-77
2022/01/11 07:03:04;;;;;;;;;;;;;;;21.88;24.01;97835.81;4991177;28;1238;-77
2022/01/11 07:05:48;;;;;;;;;;;;;;;21.45;24.54;97854.03;4988054;28;1116;-76
2022/01/11 07:08:14;;;;;;;;;;;;;;;21.86;23.57;97861.72;4969434;28;1254;-76
2022/01/11 07:10:41;;;;;;;;;;;;;;;21.63;24.26;97865.66;4956071;28;1231;-76
2022/01/11 07:13:07;;;;;;;;;;;;;;;21.49;24.39;97871.72;4984689;28;1313;-76
2022/01/11 07:15:33;;;;;;;;;;;;;;;21.80;24.12;97875.66;4936781;29;1887;-76
2022/01/11 07:18:06;;;;;;;;;;;;;;;22.11;23.47;97869.50;4933468;29;1219;-77
2022/01/11 07:20:35;;;;;;;;;;;;;;;22.38;23.06;97879.59;4975408;28;1236;-76
2022/01/11 07:23:02;;;;;;;;;;;;;;;21.81;23.67;97880.09;4942951;29;1082;-76
2022/01/11 07:25:30;;;;;;;;;;;;;;;21.73;24.02;97875.88;4946007;28;1324;-77
2022/01/11 07:27:58;;;;;;;;;;;;;;;21.90;23.78;97887.91;4996946;28;1250;-78
2022/01/11 07:30:26;;;;;;;;;;;;;;;21.78;24.17;97885.84;5024150;28;1398;-78
2022/01/11 07:32:52;;;;;;;;;;;;;;;21.77;23.70;97887.09;5016434;28;1171;-77
2022/01/11 07:35:17;;;;;;;;;;;;;;;22.07;23.51;97894.28;5021104;28;1351;-77
2022/01/11 07:37:43;;;;;;;;;;;;;;;21.55;23.89;97886.91;4967167;28;1960;-77
2022/01/11 07:40:11;;;;;;;;;;;;;;;21.73;23.96;97881.53;4941449;29;1440;-78
2022/01/11 07:42:36;;;;;;;;;;;;;;;22.12;23.19;97888.09;4928879;29;1248;-77
2022/01/11 07:45:11;;;;;;;;;;;;;;;21.50;24.11;97881.78;4925031;29;1272;-77
2022/01/11 07:47:37;;;;;;;;;;;;;;;22.06;23.15;97881.38;4905816;29;1412;-77
2022/01/11 07:50:03;;;;;;;;;;;;;;;22.23;23.27;97885.75;4904944;29;1497;-77
2022/01/11 07:52:29;;;;;;;;;;;;;;;22.29;23.18;97895.25;4871373;29;1311;-77
2022/01/11 07:54:57;;;;;;;;;;;;;;;22.09;22.99;97892.59;4868246;29;1365;-77
2022/01/11 07:57:24;;;;;;;;;;;;;;;21.76;23.64;97897.63;4855142;29;1972;-77
2022/01/11 07:59:51;;;;;;;;;;;;;;;22.27;23.07;97902.63;4885995;29;1348;-77
2022/01/11 08:02:17;;;;;;;;;;;;;;;22.49;22.97;97916.94;4872727;29;1557;-77
2022/01/11 08:04:43;;;;;;;;;;;;;;;22.41;23.03;97909.91;4862585;29;1519;-77
2022/01/11 08:07:11;;;;;;;;;;;;;;;22.67;22.82;97902.97;4817614;29;1817;-77
2022/01/11 08:09:45;;;;;;;;;;;;;;;22.61;23.11;97916.13;4795330;29;1455;-77
2022/01/11 08:12:10;;;;;;;;;;;;;;;22.48;23.37;97912.50;4793100;29;1645;-77
2022/01/11 08:14:36;;;;;;;;;;;;;;;22.47;23.49;97923.03;4831539;29;1488;-77
2022/01/11 08:17:02;;;;;;;;;;;;;;;22.53;23.15;97906.25;4842299;29;1911;-77
2022/01/11 08:19:28;;;;;;;;;;;;;;;22.51;23.13;97917.28;4837161;29;1536;-77
2022/01/11 08:21:55;;;;;;;;;;;;;;;22.71;23.16;97915.00;4888349;29;1616;-77
2022/01/11 08:24:23;;;;;;;;;;;;;;;22.59;23.03;97924.31;4860796;29;1389;-76
2022/01/11 08:26:53;;;;;;;;;;;;;;;22.60;22.74;97925.91;4886434;29;1552;-77
2022/01/11 08:29:20;;;;;;;;;;;;;;;22.59;23.00;97918.66;4885435;29;1495;-77
2022/01/11 08:31:47;;;;;;;;;;;;;;;22.56;22.85;97925.22;4923176;29;1154;-77
2022/01/11 08:34:14;;;;;;;;;;;;;;;22.25;23.13;97922.13;4957617;29;1256;-76
2022/01/11 08:36:42;;;;;;;;;;;;;;;22.00;23.37;97917.16;4973101;28;1948;-77
2022/01/11 08:39:11;;;;;;;;;;;;;;;22.46;22.74;97932.00;5021013;28;1110;-76
2022/01/11 08:41:38;;;;;;;;;;;;;;;22.47;22.70;97913.75;5025393;28;1247;-77
2022/01/11 08:44:04;;;;;;;;;;;;;;;22.35;22.78;97924.63;5022742;28;1150;-77
2022/01/11 08:46:31;;;;;;;;;;;;;;;22.31;23.08;97929.59;5002391;28;1337;-77
2022/01/11 08:49:07;;;;;;;;;;;;;;;22.38;22.66;97931.44;5029081;28;1179;-77
2022/01/11 08:51:33;;;;;;;;;;;;;;;22.43;22.92;97944.25;5009888;28;1580;-77
2022/01/11 08:53:59;;;;;;;;;;;;;;;22.29;22.81;97946.28;4958623;28;1322;-77
2022/01/11 08:56:27;;;;;;;;;;;;;;;22.68;22.20;97930.06;4965073;28;1883;-77
2022/01/11 08:58:54;;;;;;;;;;;;;;;22.65;22.32;97939.50;4952708;28;1486;-77
2022/01/11 09:01:27;;;;;;;;;;;;;;;23.11;21.87;97937.22;4965884;28;1592;-77
2022/01/11 09:03:54;;;;;;;;;;;;;;;22.47;22.58;97950.59;4946312;28;1559;-77
2022/01/11 09:06:20;;;;;;;;;;;;;;;22.48;22.16;97946.53;4952319;29;1375;-76
2022/01/11 09:08:46;;;;;;;;;;;;;;;22.00;22.93;97956.84;4970175;28;1704;-77
2022/01/11 09:11:14;;;;;;;;;;;;;;;22.25;22.82;97951.25;4974639;28;1303;-78
2022/01/11 09:13:42;;;;;;;;;;;;;;;22.41;22.60;97952.41;4981748;28;1526;-78
2022/01/11 09:16:11;;;;;;;;;;;;;;;22.40;22.58;97959.34;4972863;28;1887;-78
2022/01/11 09:18:38;;;;;;;;;;;;;;;22.51;22.42;97949.25;4946600;28;1613;-78
2022/01/11 09:21:04;;;;;;;;;;;;;;;22.47;22.14;97950.59;4945727;29;1267;-77
2022/01/11 09:23:30;;;;;;;;;;;;;;;22.57;21.97;97950.28;5017715;28;1595;-78
2022/01/11 09:25:56;;;;;;;;;;;;;;;22.94;21.54;97949.94;5059645;28;1313;-78
2022/01/11 09:28:21;;;;;;;;;;;;;;;22.97;21.31;97949.06;5048978;28;1631;-77
2022/01/11 09:30:48;;;;;;;;;;;;;;;22.53;22.12;97946.75;5038737;28;1486;-78
2022/01/11 09:33:14;;;;;;;;;;;;;;;22.27;22.45;97942.28;5028358;28;1360;-77
2022/01/11 09:35:41;;;;;;;;;;;;;;;21.95;22.86;97949.69;4993437;28;1907;-77
2022/01/11 09:38:14;;;;;;;;;;;;;;;22.37;22.27;97941.19;4996766;28;1398;-77
2022/01/11 09:40:41;;;;;;;;;;;;;;;22.59;22.06;97947.00;4942764;29;1570;-76
2022/01/11 09:43:07;;;;;;;;;;;;;;;22.57;21.88;97952.31;4933536;29;1691;-77
2022/01/11 09:45:37;;;;;;;;;;;;;;;22.64;21.82;97949.28;4939208;29;1720;-77
2022/01/11 09:48:03;;;;;;;;;;;;;;;22.64;22.16;97943.59;4954491;28;1747;-77
2022/01/11 09:50:34;;;;;;;;;;;;;;;23.08;21.34;97958.00;4936100;28;1634;-77
2022/01/11 09:53:03;;;;;;;;;;;;;;;22.60;21.53;97959.94;4953867;28;1625;-77
2022/01/11 09:55:32;;;;;;;;;;;;;;;22.33;21.95;97946.19;4944572;29;1214;-77
2022/01/11 09:58:00;;;;;;;;;;;;;;;21.88;22.73;97949.91;4940518;29;1910;-77
2022/01/11 10:00:55;;;;;;;;;;;;;;;22.48;22.17;97946.53;4933569;29;993;-77
2022/01/11 10:03:56;;;;;;;;;;;;;;;22.53;21.99;97943.13;4945102;29;982;-77
2022/01/11 10:06:27;;;;;;;;;;;;;;;22.64;21.76;97954.94;4911352;29;1282;-77
2022/01/11 10:09:08;;;;;;;;;;;;;;;22.27;22.32;97943.09;4886653;29;978;-77
2022/01/11 10:11:34;;;;;;;;;;;;;;;22.57;21.75;97943.81;4889731;29;1243;-76
2022/01/11 10:13:59;;;;;;;;;;;;;;;22.84;21.45;97946.97;4885932;29;2053;-77
2022/01/11 10:16:26;;;;;;;;;;;;;;;23.05;20.84;97956.88;4920754;29;1888;-76
2022/01/11 10:18:56;;;;;;;;;;;;;;;22.11;22.19;97960.19;4919645;29;1488;-76
2022/01/11 10:21:38;;;;;;;;;;;;;;;21.83;22.61;97948.41;4941489;29;1234;-77
2022/01/11 10:24:25;;;;;;;;;;;;;;;22.74;21.40;97965.16;4940810;29;1087;-77
2022/01/11 10:26:53;;;;;;;;;;;;;;;23.18;20.89;97978.78;4942143;28;1295;-77
2022/01/11 10:29:23;;;;;;;;;;;;;;;22.74;21.02;97982.19;4953686;28;1200;-77
2022/01/11 10:31:51;;;;;;;;;;;;;;;22.15;22.16;97969.38;4938507;29;1240;-76
2022/01/11 10:34:23;;;;;;;;;;;;;;;22.22;21.82;97979.69;4962271;28;1131;-77
2022/01/11 10:36:49;;;;;;;;;;;;;;;22.39;21.94;97983.28;4969628;28;1954;-77
2022/01/11 10:39:38;;;;;;;;;;;;;;;22.36;21.75;97985.75;4981787;28;1560;-77
2022/01/11 10:42:21;;;;;;;;;;;;;;;22.31;21.63;97983.47;5022668;28;1246;-77
2022/01/11 10:45:00;;;;;;;;;;;;;;;22.72;21.28;97969.69;5004342;28;1631;-77
2022/01/11 10:47:30;;;;;;;;;;;;;;;22.86;20.99;97967.19;4990432;28;1175;-77
2022/01/11 10:49:56;;;;;;;;;;;;;;;22.51;21.75;97962.63;5003879;28;1134;-77
2022/01/11 10:52:25;;;;;;;;;;;;;;;21.95;22.37;97954.56;5037102;28;1584;-77
2022/01/11 10:54:59;;;;;;;;;;;;;;;21.97;22.25;97946.41;5048196;28;1150;-77
2022/01/11 10:57:28;;;;;;;;;;;;;;;22.54;21.29;97956.88;5083361;28;1987;-77
2022/01/11 11:00:03;;;;;;;;;;;;;;;22.62;21.26;97965.94;5074117;28;1058;-76
2022/01/11 11:02:31;;;;;;;;;;;;;;;22.44;21.59;97968.53;5045431;28;1245;-77
2022/01/11 11:05:16;;;;;;;;;;;;;;;22.83;20.95;97961.63;5060842;28;1199;-77
2022/01/11 11:07:42;;;;;;;;;;;;;;;22.58;21.22;97970.91;5062281;28;1189;-77
2022/01/11 11:10:09;;;;;;;;;;;;;;;23.17;20.47;97972.31;5044611;28;1215;-76
2022/01/11 11:12:35;;;;;;;;;;;;;;;22.88;20.68;97978.91;5062700;28;1359;-76
2022/01/11 11:15:03;;;;;;;;;;;;;;;21.95;21.71;97968.72;5060831;28;1161;-76
2022/01/11 11:17:35;;;;;;;;;;;;;;;21.93;22.37;97979.72;5064832;28;1979;-76
2022/01/11 11:20:08;;;;;;;;;;;;;;;21.68;22.36;97969.88;5048487;28;1189;-76
2022/01/11 11:22:34;;;;;;;;;;;;;;;22.28;21.72;97970.22;5069389;28;895;-76
2022/01/11 11:24:59;;;;;;;;;;;;;;;21.48;22.63;97966.38;5060987;28;889;-76
2022/01/11 11:27:25;;;;;;;;;;;;;;;21.92;22.20;97983.81;5063406;28;1019;-76
2022/01/11 11:29:51;;;;;;;;;;;;;;;22.23;21.81;97981.31;5043886;28;1026;-76
2022/01/11 11:32:17;;;;;;;;;;;;;;;21.97;22.16;97986.88;5022362;28;1035;-76
2022/01/11 11:34:45;;;;;;;;;;;;;;;21.57;22.35;97981.47;5020664;28;1232;-76
2022/01/11 11:37:10;;;;;;;;;;;;;;;21.27;22.88;97993.16;5023197;28;1966;-76
2022/01/11 11:39:35;;;;;;;;;;;;;;;22.24;21.96;97995.03;5020793;28;955;-76
2022/01/11 11:42:01;;;;;;;;;;;;;;;22.01;21.93;97992.41;5022498;28;1190;-77
2022/01/11 11:44:27;;;;;;;;;;;;;;;21.80;22.30;98005.94;5021444;28;963;-78
2022/01/11 11:46:53;;;;;;;;;;;;;;;21.64;22.44;98003.16;5022556;28;861;-77
2022/01/11 11:49:37;;;;;;;;;;;;;;;21.69;22.72;98016.75;5020060;28;1030;-77
2022/01/11 11:52:16;;;;;;;;;;;;;;;21.72;22.43;98027.22;5005336;28;919;-76
2022/01/11 11:54:49;;;;;;;;;;;;;;;21.88;22.12;98028.41;5003918;28;849;-76
2022/01/11 11:57:14;;;;;;;;;;;;;;;21.47;22.83;98032.72;5025237;28;1914;-77
2022/01/11 11:59:40;;;;;;;;;;;;;;;21.79;22.30;98032.66;5056533;28;996;-77
2022/01/11 12:02:05;;;;;;;;;;;;;;;22.03;22.02;98033.25;5025786;28;798;-76
2022/01/11 12:04:31;;;;;;;;;;;;;;;21.18;22.86;98036.22;5062040;28;947;-76
2022/01/11 12:06:57;;;;;;;;;;;;;;;21.24;22.99;98031.66;5064966;28;732;-77
2022/01/11 12:09:28;;;;;;;;;;;;;;;21.89;22.20;98030.78;5096769;28;1164;-77
2022/01/11 12:11:54;;;;;;;;;;;;;;;21.51;22.69;98022.13;5104363;28;1474;-77
2022/01/11 12:14:31;;;;;;;;;;;;;;;22.06;22.07;98034.38;5082583;28;1470;-77
2022/01/11 12:16:57;;;;;;;;;;;;;;;21.70;22.57;98045.88;5084226;28;1956;-77
2022/01/11 12:19:41;;;;;;;;;;;;;;;21.98;21.69;98056.44;5080441;28;961;-77
2022/01/11 12:22:07;;;;;;;;;;;;;;;22.38;21.48;98069.53;5081699;28;1374;-76
2022/01/11 12:24:39;;;;;;;;;;;;;;;21.71;22.46;98070.13;5077518;28;1604;-76
2022/01/11 12:27:06;;;;;;;;;;;;;;;22.13;21.78;98093.72;5080725;28;1509;-76
2022/01/11 12:29:32;;;;;;;;;;;;;;;21.90;21.97;98099.56;5045109;28;975;-76
2022/01/11 12:31:57;;;;;;;;;;;;;;;21.93;22.11;98098.69;5079091;28;1482;-76
2022/01/11 12:34:41;;;;;;;;;;;;;;;22.19;21.79;98110.97;5075790;28;1517;-75
2022/01/11 12:37:06;;;;;;;;;;;;;;;21.67;22.44;98114.75;5079509;28;1966;-77
2022/01/11 12:39:32;;;;;;;;;;;;;;;21.28;22.84;98103.09;5079007;28;967;-76
2022/01/11 12:41:57;;;;;;;;;;;;;;;21.75;22.44;98099.94;5080538;28;1189;-77
2022/01/11 12:44:27;;;;;;;;;;;;;;;22.06;21.75;98085.38;5095012;28;974;-76
2022/01/11 12:46:54;;;;;;;;;;;;;;;21.68;22.32;98085.19;5080149;28;1038;-77
2022/01/11 12:49:20;;;;;;;;;;;;;;;21.54;22.24;98077.84;5078605;28;1065;-76
2022/01/11 12:51:57;;;;;;;;;;;;;;;21.76;22.36;98073.22;5083011;28;1007;-76
2022/01/11 12:54:30;;;;;;;;;;;;;;;21.68;22.11;98080.31;5097061;28;1072;-76
2022/01/11 12:57:17;;;;;;;;;;;;;;;21.61;22.31;98060.69;5099481;28;1970;-76
2022/01/11 12:59:46;;;;;;;;;;;;;;;21.21;22.78;98072.13;5098237;28;988;-76
2022/01/11 13:02:12;;;;;;;;;;;;;;;21.66;21.79;98073.47;5078730;28;1017;-76
2022/01/11 13:04:58;;;;;;;;;;;;;;;21.53;22.56;98082.69;5076327;28;1022;-75
2022/01/11 13:07:24;;;;;;;;;;;;;;;21.83;21.85;98090.03;5075361;28;1158;-76
2022/01/11 13:10:07;;;;;;;;;;;;;;;21.78;21.92;98099.06;5075700;28;956;-76
2022/01/11 13:12:53;;;;;;;;;;;;;;;21.34;22.45;98094.91;5076892;28;1011;-76